Flight Track Log - Related Links

Times and Time Zones

All times are in EDT time to prevent confusion due to time zone crossing. See the RPA3436 flight status page for this flight to view local times or setup timezone preferences in your user account.

Time Position Orientation Groundspeed Altitude Reporting Facility
EDT Latitude Longitude Course Direction KTS MPH feet Rate Location/Type
Thu 10:15:47 AM 38.8333 -77.0333 57° Northeast 152 175 1,200  Level Potomac TRACON
Thu 10:17:18 AM 38.7358 -77.0314 179° South 199 229 3,900 2,447 Climbing Washington Center
Thu 10:18:00 AM 39.0061 -76.5878 57° Northeast  Level FlightAware Approximate
Thu 10:18:19 AM 38.7222 -76.9461 102° East 184 212 7,400  Level Washington Center
Thu 10:19:00 AM 39.0497 -76.4759 63° Northeast  Level FlightAware Approximate
Thu 10:19:20 AM 38.7775 -76.8644 49° Northeast 202 232 10,600  Level Washington Center
Thu 10:20:00 AM 39.0958 -76.3654 61° Northeast  Level FlightAware Approximate
Thu 10:20:20 AM 38.8306 -76.7722 54° Northeast 276 318 13,300  Level Washington Center
Thu 10:21:00 AM 39.1250 -76.2500 57° Northeast  Level FlightAware Approximate
Thu 10:21:21 AM 38.8856 -76.6744 54° Northeast 290 334 15,300  Level Washington Center
Thu 10:22:19 AM 38.9303 -76.5575 64° Northeast 327 376 17,400 2,034 Climbing Washington Center
Thu 10:23:19 AM 38.9769 -76.4381 63° Northeast 354 407 19,300 1,884 Climbing Washington Center
Thu 10:24:20 AM 39.0258 -76.3131 63° Northeast 373 429 21,200 1,884 Climbing Washington Center
Thu 10:25:20 AM 39.0744 -76.1797 65° Northeast 385 443 23,100 1,736 Climbing Washington Center
Thu 10:26:21 AM 39.1292 -76.0492 62° Northeast 402 463 24,700 1,537 Climbing Washington Center
Thu 10:27:21 AM 39.1817 -75.9128 64° Northeast 407 468 26,200 1,475 Climbing Washington Center
Thu 10:28:19 AM 39.2611 -75.7981 48° Northeast 420 483 27,600 1,373 Climbing Washington Center
Thu 10:29:19 AM 39.3467 -75.6828 46° Northeast 425 489 28,900 694 Climbing Washington Center
Thu 10:30:20 AM 39.4322 -75.5756 44° Northeast 430 495 29,000 50 Climbing Washington Center
Thu 10:31:20 AM 39.5133 -75.4678 46° Northeast 419 482 29,000  Level Washington Center
Thu 10:32:18 AM 39.5925 -75.3625 46° Northeast 414 476 29,000  Level Washington Center
Thu 10:33:19 AM 39.6736 -75.2544 46° Northeast 409 471 29,000  Level Washington Center
Thu 10:33:51 AM 39.7069 -75.2097 46° Northeast 418 481 29,000  Level New York Center
Thu 10:34:52 AM 39.7842 -75.0931 49° Northeast 423 487 29,000  Level New York Center
Thu 10:35:53 AM 39.8653 -74.9819 46° Northeast 423 487 29,000  Level New York Center
Thu 10:36:51 AM 39.9503 -74.8758 44° Northeast 423 487 29,000  Level New York Center
Thu 10:37:53 AM 40.0436 -74.7703 41° Northeast 408 470 29,000  Level New York Center
Thu 10:38:53 AM 40.1219 -74.6769 42° Northeast 408 470 29,000  Level New York Center
Thu 10:39:52 AM 40.2172 -74.5628 42° Northeast 408 470 29,000  Level New York Center
Thu 10:40:51 AM 40.3061 -74.4561 42° Northeast 413 475 29,000  Level New York Center
Thu 10:41:53 AM 40.3928 -74.3517 43° Northeast 413 475 29,000  Level New York Center
Thu 10:43:44 AM 40.5281 -74.1847 43° Northeast 412 474 29,000 -491 Level Boston Center
Thu 10:44:44 AM 40.6319 -74.0589 43° Northeast 417 480 27,600 -1,950 Descending Boston Center
Thu 10:45:44 AM 40.7378 -73.9439 39° Northeast 428 493 25,100 -1,636 Descending Boston Center
Thu 10:46:56 AM 40.8203 -73.8389 44° Northeast 423 487 24,000 -591 Descending Boston Center
Thu 10:47:56 AM 40.9217 -73.7228 41° Northeast 413 475 23,800 -500 Descending Boston Center
Thu 10:48:56 AM 41.0267 -73.6617 24° Northeast 405 466 23,000 -400 Descending Boston Center
Thu 10:49:56 AM 41.1336 -73.6031 22° Northeast 405 466 23,000 -950 Level Boston Center
Thu 10:50:56 AM 41.2403 -73.5469 22° Northeast 405 466 21,100 -2,050 Descending Boston Center
Thu 10:51:56 AM 41.3447 -73.5350 North 397 457 18,900 -1,550 Descending Boston Center
Thu 10:52:56 AM 41.4364 -73.5367 359° North 368 423 18,000 -700 Descending Boston Center
Thu 10:53:56 AM 41.5469 -73.5331 North 362 417 17,500 -500 Descending Boston Center
Thu 10:54:56 AM 41.6364 -73.5317 North 362 417 17,000 -900 Descending Boston Center
Thu 10:55:56 AM 41.7428 -73.5308 360° North 356 410 15,700 -1,550 Descending Boston Center
Thu 10:56:56 AM 41.8303 -73.5322 359° North 349 402 13,900 -1,900 Descending Boston Center
Thu 10:57:56 AM 41.9325 -73.5283 North 343 395 11,900 -1,540 Descending Boston Center
Thu 10:58:49 AM 42.0158 -73.5272 North 321 369 11,000 -500 Descending Boston Center
Thu 10:59:56 AM 42.1117 -73.5231 North 322 371 10,900 -47 Descending Boston Center
Thu 11:00:56 AM 42.1969 -73.5386 352° North 316 364 10,900 -500 Level Boston Center
Thu 11:01:56 AM 42.2761 -73.5569 350° North 319 367 9,900 -1,431 Descending Boston Center
Thu 11:02:45 AM 42.3489 -73.5722 351° North 294 338 8,300 -1,810 Descending Boston Center
Thu 11:03:52 AM 42.4342 -73.5906 351° North 285 328 6,400 -1,594 Descending Boston Center
Thu 11:04:53 AM 42.5172 -73.6119 349° North 281 323 4,900 -991 Descending Boston Center
Thu 11:05:47 AM 42.5714 -73.6325 344° North 238 274 4,500 -585 Descending Boston Center
Thu 11:06:56 AM 42.6400 -73.6508 349° North 232 267 3,700 -698 Descending Boston Center
Thu 11:07:56 AM 42.7042 -73.6692 348° North 222 255 3,000 -350 Descending Boston Center
Thu 11:08:56 AM 42.7686 -73.6875 348° North 222 255 3,000  Level Boston Center
Thu 11:09:56 AM 42.8269 -73.7056 347° North 216 249 3,000 -500 Level Boston Center
Thu 11:10:56 AM 42.8789 -73.7236 346° North 205 236 2,000 -1,000 Descending Boston Center

Login

Don't have an account? Register now (free) for customized features, flight alerts, and more!